Captain Ed — WDF6338 — position and weather

sailwx.info

Track history (hours):
 
Tides and Currents Weather Stations Pressure Air Temp Water Temp Dewpoint Dewpoint Depression Visibility Wind Speed Wind Dir Waves Ship Positions

Captain Ed

Owner: Norfolk Dredging Company, Chesapeake, VA. More information available from US FCC via Universal Licensing System and Coast Guard Vessel Documentation Center.

Last reported at 2016-Sep-19 00:24 UTC. Time now 2016-Sep-29 08:31 UTC.
Position N 38°48' W 076°25'.
Warning: this ship's position is 10 days out of date.

Length 22 m; draft 3 m.

Type: Tug. MMSI: 367473210.

Date/timePositionNaut miles runAvg speedWind from/ knotsBaromVisibWave heightAir tempDewpointWater temp
2016-Sep-19 00:24N 38°48' W 076°25'115 3.3
2016-Sep-17 13:32N 36°52' W 076°21'0 0.1
2016-Sep-17 12:33N 36°52' W 076°20'0 0.0
2016-Sep-17 10:33N 36°52' W 076°20'0 0.0
2016-Sep-17 09:32N 36°52' W 076°20'0 0.0
2016-Sep-17 08:33N 36°52' W 076°20'0 0.0
2016-Sep-17 07:34N 36°52' W 076°20'0 0.0
2016-Sep-17 05:33N 36°52' W 076°20'0 0.0
2016-Sep-17 04:33N 36°52' W 076°20'0 0.0
2016-Sep-17 00:33N 36°52' W 076°20'4 0.5
2016-Sep-16 17:33N 36°49' W 076°18'4 1.9
2016-Sep-16 15:33N 36°52' W 076°20'7 2.3
2016-Sep-16 12:33N 36°46' W 076°18'0 0.0
2016-Sep-15 12:33N 36°46' W 076°18'3 3.1
2016-Sep-15 11:27N 36°43' W 076°15'5 0.3
2016-Sep-14 17:33N 36°48' W 076°18'4 3.6
2016-Sep-14 16:27N 36°52' W 076°19'4 1.4
2016-Sep-14 13:33N 36°48' W 076°18'3 2.4
2016-Sep-14 12:25N 36°45' W 076°18'4 0.2
2016-Sep-13 20:07N 36°43' W 076°14'5 2.9
2016-Sep-13 18:33N 36°47' W 076°18'2 2.1
2016-Sep-13 17:33N 36°49' W 076°17'1 1.1
2016-Sep-13 16:33N 36°48' W 076°18'  
Track history (hours):
 
Tides and Currents Weather Stations Pressure Air Temp Water Temp Dewpoint Dewpoint Depression Visibility Wind Speed Wind Dir Waves Ship Positions

Captain Ed

Owner: Norfolk Dredging Company, Chesapeake, VA. More information available from US FCC via Universal Licensing System and Coast Guard Vessel Documentation Center.

Last reported at 2016-Sep-19 00:24 UTC. Time now 2016-Sep-29 08:31 UTC.
Position N 38°48' W 076°25'.
Warning: this ship's position is 10 days out of date.

Length 22 m; draft 3 m.

Type: Tug. MMSI: 367473210.

Date/timePositionNaut miles runAvg speedWind from/ knotsBaromVisibWave heightAir tempDewpointWater temp
2016-Sep-19 00:24N 38°48' W 076°25'115 3.3
2016-Sep-17 13:32N 36°52' W 076°21'0 0.1
2016-Sep-17 12:33N 36°52' W 076°20'0 0.0
2016-Sep-17 10:33N 36°52' W 076°20'0 0.0
2016-Sep-17 09:32N 36°52' W 076°20'0 0.0
2016-Sep-17 08:33N 36°52' W 076°20'0 0.0
2016-Sep-17 07:34N 36°52' W 076°20'0 0.0
2016-Sep-17 05:33N 36°52' W 076°20'0 0.0
2016-Sep-17 04:33N 36°52' W 076°20'0 0.0
2016-Sep-17 00:33N 36°52' W 076°20'4 0.5
2016-Sep-16 17:33N 36°49' W 076°18'4 1.9
2016-Sep-16 15:33N 36°52' W 076°20'7 2.3
2016-Sep-16 12:33N 36°46' W 076°18'0 0.0
2016-Sep-15 12:33N 36°46' W 076°18'3 3.1
2016-Sep-15 11:27N 36°43' W 076°15'5 0.3
2016-Sep-14 17:33N 36°48' W 076°18'4 3.6
2016-Sep-14 16:27N 36°52' W 076°19'4 1.4
2016-Sep-14 13:33N 36°48' W 076°18'3 2.4
2016-Sep-14 12:25N 36°45' W 076°18'4 0.2
2016-Sep-13 20:07N 36°43' W 076°14'5 2.9
2016-Sep-13 18:33N 36°47' W 076°18'2 2.1
2016-Sep-13 17:33N 36°49' W 076°17'1 1.1
2016-Sep-13 16:33N 36°48' W 076°18'  

Dump ship's entire track history